• Join FlightAware (Why Join?)
  • Login
  • US Flag 
08:40AM EDT


 

Airport Tracker/Info


-or-


 

Live Flight TrackerFlight Track Log ✈ N604MC ✈ 19-Aug-2013 ✈ KSJC - KGJT

Flight Track Log - Related Links

Times and Time Zones

All times are in EDT time to prevent confusion due to time zone crossing. See the N604MC flight status page for this flight to view local times or setup timezone preferences in your user account.

Time Position Orientation Groundspeed Altitude Reporting Facility
EDT Latitude Longitude Course Direction KTS MPH feet Rate Location/Type
02:57PM 37.4500 -121.9500 15° North 241 277 4,200  Level Northern Cal TRACON
02:58PM 37.4167 -121.9000 130° Southeast 214 246 5,000 1,680 Climbing Northern Cal TRACON
02:59PM 37.3667 -121.8333 133° Southeast 247 284 7,600 2,820 Climbing Northern Cal TRACON
03:00PM 37.3186 -121.8161 164° South 257 296 10,600 3,000 Climbing Oakland Center
03:01PM 37.4982 -121.2119 76° East  Level Estimated
03:01PM 37.3019 -121.9083 257° West 311 358 13,600  Level Oakland Center
03:02PM 37.3831 -121.9456 340° North 324 373 16,500 2,520 Climbing Oakland Center
03:03PM 37.5008 -121.9592 355° North 348 400 18,800 2,100 Climbing Oakland Center
03:04PM 37.6117 -121.9708 355° North 373 429 20,900 2,100 Climbing Oakland Center
03:05PM 37.7256 -121.9806 356° North 403 464 23,200 1,980 Climbing Oakland Center
03:06PM 37.8269 -121.9303 21° North 409 471 25,100 1,620 Climbing Oakland Center
03:07PM 37.8678 -121.8011 68° East 397 457 26,600 1,440 Climbing Oakland Center
03:08PM 37.9033 -121.6656 72° East 406 467 28,100 1,500 Climbing Oakland Center
03:09PM 37.9472 -121.4972 72° East 418 481 29,700 1,380 Climbing Oakland Center
03:10PM 37.9850 -121.3503 72° East 431 496 31,000 1,200 Climbing Oakland Center
03:11PM 38.0219 -121.2039 72° East 439 505 32,200 1,020 Climbing Oakland Center
03:12PM 38.0597 -121.0569 72° East 441 507 33,200 960 Climbing Oakland Center
03:13PM 38.0872 -120.9050 77° East 445 512 34,200 900 Climbing Oakland Center
03:14PM 38.1058 -120.7511 81° East 445 512 35,100 960 Climbing Oakland Center
03:15PM 38.1303 -120.5664 80° East 444 511 36,300 900 Climbing Oakland Center
03:16PM 38.1503 -120.4139 80° East 441 507 37,000 300 Climbing Oakland Center
03:17PM 38.1700 -120.2572 81° East 450 518 37,000  Level Oakland Center
03:18PM 38.1917 -120.0947 80° East 464 534 37,000  Level Oakland Center
03:19PM 38.2117 -119.9308 81° East 470 541 37,000  Level Oakland Center
03:20PM 38.2331 -119.7675 80° East 469 540 37,000  Level Oakland Center
03:21PM 38.2539 -119.6036 81° East 471 542 37,000  Level Oakland Center
03:22PM 38.2744 -119.4239 82° East 472 543 37,000  Level Oakland Center
03:23PM 38.2942 -119.2589 81° East 475 547 37,000  Level Oakland Center
03:24PM 38.3181 -119.0619 81° East 472 543 37,000  Level Oakland Center
03:25PM 38.3375 -118.8983 81° East 470 541 37,000  Level Oakland Center
03:26PM 38.3561 -118.7331 82° East 473 544 37,000  Level Oakland Center
03:27PM 38.3747 -118.5694 82° East 471 542 37,000  Level Oakland Center
03:28PM 38.3939 -118.4036 82° East 473 544 37,000  Level Oakland Center
03:29PM 38.4117 -118.2400 82° East 470 541 37,000  Level Oakland Center
03:31PM 38.4325 -118.0483 82° East 472 543 37,000  Level Oakland Center
03:32PM 38.4506 -117.8819 82° East 473 544 37,000  Level Oakland Center
03:33PM 38.4681 -117.7142 82° East 475 547 37,000  Level Oakland Center
03:34PM 38.4889 -117.5119 82° East 475 547 37,000  Level Salt Lake Center
03:35PM 38.5028 -117.3789 82° East 473 544 37,000  Level Oakland Center
03:36PM 38.5206 -117.2097 82° East 474 545 37,000  Level Oakland Center
03:37PM 38.5378 -117.0375 83° East 482 555 37,000  Level Oakland Center
03:38PM 38.5542 -116.8672 83° East 481 554 37,000  Level Oakland Center
03:39PM 38.5703 -116.6978 83° East 479 551 37,000  Level Oakland Center
03:40PM 38.5894 -116.4947 83° East 479 551 37,000  Level Oakland Center
03:41PM 38.6058 -116.3242 83° East 481 554 37,000  Level Oakland Center
03:42PM 38.6219 -116.1528 83° East 484 557 37,000  Level Oakland Center
03:43PM 38.6400 -115.9475 84° East 486 559 37,000  Level Salt Lake Center
03:44PM 38.6550 -115.7736 84° East 490 564 37,000  Level Salt Lake Center
03:45PM 38.6694 -115.5997 84° East 492 566 37,000  Level Salt Lake Center
03:46PM 38.6847 -115.4269 83° East 491 565 37,000  Level Salt Lake Center
03:47PM 38.7117 -115.2289 80° East 493 567 37,000  Level Salt Lake Center
03:48PM 38.7506 -115.0558 74° East 500 575 37,000  Level Salt Lake Center
03:49PM 38.7878 -114.8839 74° East 501 577 37,000  Level Salt Lake Center
03:50PM 38.8242 -114.7117 75° East 500 575 37,000  Level Salt Lake Center
03:51PM 38.8617 -114.5378 74° East 504 580 37,000  Level Salt Lake Center
03:52PM 38.8961 -114.3678 75° East 495 570 37,000  Level Salt Lake Center
03:53PM 38.9347 -114.1681 76° East 483 556 37,000  Level Salt Lake Center
03:54PM 38.9669 -114.0008 76° East 482 555 37,000 -300 Level Salt Lake Center
03:55PM 39.0000 -113.8306 76° East 488 562 36,500 -780 Descending Salt Lake Center
03:56PM 39.0158 -113.6594 83° East 486 559 35,500 -780 Descending Salt Lake Center
03:57PM 39.0206 -113.4922 88° East 473 544 35,000 -300 Descending Salt Lake Center
03:59PM 39.0250 -113.3272 88° East 465 535 35,000  Level Salt Lake Center
04:00PM 39.0300 -113.1569 88° East 470 541 35,000  Level Salt Lake Center
04:01PM 39.0353 -112.9506 88° East 479 551 35,000  Level Salt Lake Center
04:02PM 39.0389 -112.7803 88° East 476 548 35,000  Level Salt Lake Center
04:03PM 39.0556 -112.6100 83° East 480 552 35,000  Level Salt Lake Center
04:04PM 39.0753 -112.4400 81° East 480 552 35,000  Level Salt Lake Center
04:05PM 39.0956 -112.2708 81° East 479 551 35,000  Level Salt Lake Center
04:06PM 39.1147 -112.1011 82° East 479 551 35,000  Level Salt Lake Center
04:07PM 39.1378 -111.8969 82° East 480 552 35,000  Level Salt Lake Center
04:08PM 39.1453 -111.7244 87° East 481 554 35,000  Level Salt Lake Center
04:09PM 39.1417 -111.5517 91° East 482 555 35,000 -300 Level Salt Lake Center
04:10PM 39.1383 -111.3775 91° East 485 558 34,400 -1,560 Descending Salt Lake Center
04:11PM 39.1328 -111.1969 92° East 472 543 31,800 -2,340 Descending Salt Lake Center
04:12PM 39.1300 -111.0422 91° East 457 526 29,600 -2,280 Descending Salt Lake Center
04:13PM 39.1261 -110.8669 92° East 442 509 27,100 -2,220 Descending Salt Lake Center
04:14PM 39.1233 -110.7208 91° East 430 495 25,100 -1,020 Descending Salt Lake Center
04:15PM 39.1208 -110.5589 91° East 408 470 25,000 -240 Descending Salt Lake Center
04:16PM 39.1169 -110.4156 92° East 416 479 24,700 -1,020 Descending Salt Lake Center
04:17PM 39.1122 -110.2386 92° East 439 505 23,000 -1,560 Descending Salt Lake Center
04:18PM 39.1072 -110.0883 92° East 441 507 21,500 -1,440 Descending Salt Lake Center
04:19PM 39.1022 -109.9250 92° East 417 480 20,100 -1,200 Descending Salt Lake Center
04:20PM 39.0908 -109.7931 96° East 402 463 19,100 -1,020 Descending Salt Lake Center
04:21PM 39.0717 -109.6253 98° East 376 433 17,800 -1,020 Descending Denver Center
04:23PM 39.0667 -109.3500 91° East 359 413 15,900 -960 Descending Denver TRACON
04:24PM 39.0675 -109.2592 89° East 360 414 15,100 -1,200 Descending Salt Lake Center
04:25PM 39.0656 -109.1392 91° East 356 410 13,700 -1,500 Descending Salt Lake Center
04:26PM 39.0639 -109.0100 91° East 341 392 12,000 -1,500 Descending Salt Lake Center
04:27PM 39.0611 -108.9172 92° East 303 349 10,600 -1,260 Descending Salt Lake Center
04:28PM 39.0653 -108.8164 87° East 272 313 9,400 -780 Descending Salt Lake Center
04:30PM 39.0778 -108.7386 78° East 249 287 9,100 -1,020 Descending Salt Lake Center
04:31PM 39.0939 -108.6367 78° East 206 237 7,100 -1,140 Descending Denver Center
04:32PM 39.0878 -108.5603 96° East 210 242 6,600 -540 Descending Denver Center
04:33PM 39.0692 -108.4944 110° East 214 246 6,000 -660 Descending Denver Center
04:34PM 39.1067 -108.4933 North 175 201 5,300 -540 Descending Denver Center
04:35PM 39.1281 -108.5311 306° West 157 181 4,900 -420 Descending Denver Center